Time;durP1;ratioP1;P1;durP2;ratioP2;P2;SDS_P1;SDS_P2;PMS_P1;PMS_P2;Temp;Humidity;BMP_temperature;BMP_pressure;BME280_temperature;BME280_humidity;BME280_pressure;Samples;Min_cycle;Max_cycle;Signal;HPM_P1;HPM_P2
2022/05/07 00:00:54;;;;;;;22.40;17.73;;;10.90;99.90;;;;;;5050129;28;20036;-73
2022/05/07 00:03:19;;;;;;;26.70;19.50;;;10.90;99.90;;;;;;5069834;28;20052;-73
2022/05/07 00:05:45;;;;;;;25.67;19.02;;;11.10;99.90;;;;;;5064644;28;20039;-73
2022/05/07 00:08:11;;;;;;;25.73;18.45;;;11.10;99.90;;;;;;5082949;28;20055;-73
2022/05/07 00:10:37;;;;;;;29.23;21.27;;;11.10;99.90;;;;;;5050854;28;20039;-75
2022/05/07 00:13:04;;;;;;;25.98;18.58;;;11.20;99.90;;;;;;5060820;28;20036;-73
2022/05/07 00:15:31;;;;;;;25.40;19.30;;;11.20;99.90;;;;;;5085708;28;20067;-73
2022/05/07 00:18:03;;;;;;;26.17;17.55;;;11.30;99.90;;;;;;5067505;28;20039;-73
2022/05/07 00:20:30;;;;;;;21.92;17.10;;;11.30;99.90;;;;;;5070299;28;20113;-73
2022/05/07 00:22:57;;;;;;;23.60;16.85;;;11.40;99.90;;;;;;5068620;28;20083;-73
2022/05/07 00:25:24;;;;;;;22.73;17.45;;;11.40;99.90;;;;;;5088843;28;20484;-73
2022/05/07 00:27:53;;;;;;;21.48;16.98;;;11.50;99.90;;;;;;5054138;28;20028;-73
2022/05/07 00:30:19;;;;;;;20.83;16.00;;;11.50;99.90;;;;;;5085853;28;20078;-73
2022/05/07 00:32:46;;;;;;;20.65;14.50;;;11.50;99.90;;;;;;5066862;28;20044;-73
2022/05/07 00:35:12;;;;;;;18.58;14.95;;;11.50;99.90;;;;;;5057733;28;20039;-73
2022/05/07 00:37:38;;;;;;;21.27;15.68;;;11.40;99.90;;;;;;5088874;28;20043;-73
2022/05/07 00:40:09;;;;;;;18.85;14.82;;;11.40;99.90;;;;;;5052660;28;20094;-73
2022/05/07 00:42:35;;;;;;;22.60;16.83;;;11.30;99.90;;;;;;5055275;28;20063;-73
2022/05/07 00:45:02;;;;;;;18.23;14.13;;;11.30;99.90;;;;;;5071267;28;20129;-73
2022/05/07 00:47:39;;;;;;;21.67;15.68;;;11.30;99.90;;;;;;5089130;28;20542;-73
2022/05/07 00:52:52;;;;;;;20.98;15.50;;;11.30;99.90;;;;;;5075487;28;20040;-73
2022/05/07 00:55:18;;;;;;;22.00;15.80;;;11.30;99.90;;;;;;5073920;28;20106;-73
2022/05/07 00:57:45;;;;;;;23.17;16.13;;;11.30;99.90;;;;;;5087986;28;20419;-73
2022/05/07 01:00:14;;;;;;;20.23;15.95;;;11.30;99.90;;;;;;5067956;28;20047;-72
2022/05/07 01:02:41;;;;;;;23.48;16.25;;;11.30;99.90;;;;;;5050783;28;20054;-74
2022/05/07 01:05:07;;;;;;;18.95;15.38;;;11.30;99.90;;;;;;5056587;28;20063;-73
2022/05/07 01:07:36;;;;;;;19.23;15.70;;;11.40;99.90;;;;;;5067941;28;20406;-73
2022/05/07 01:10:06;;;;;;;20.85;15.07;;;11.40;99.90;;;;;;5069425;28;20031;-73
2022/05/07 01:12:41;;;;;;;19.15;15.02;;;11.30;99.90;;;;;;5072352;28;20042;-73
2022/05/07 01:15:07;;;;;;;22.48;15.68;;;11.30;99.90;;;;;;5088311;28;20043;-73
2022/05/07 01:17:34;;;;;;;19.75;16.05;;;11.30;99.90;;;;;;5056164;28;20307;-73
2022/05/07 01:20:00;;;;;;;18.27;13.98;;;11.30;99.90;;;;;;5089195;28;20119;-73
2022/05/07 01:22:28;;;;;;;22.60;15.52;;;11.30;99.90;;;;;;5056154;28;20046;-73
2022/05/07 01:24:55;;;;;;;20.73;15.10;;;11.30;99.90;;;;;;5089582;28;20050;-73
2022/05/07 01:27:26;;;;;;;19.77;14.88;;;11.30;99.90;;;;;;5088981;28;20412;-73
2022/05/07 01:29:52;;;;;;;20.05;15.02;;;11.30;99.90;;;;;;5088372;28;20027;-73
2022/05/07 01:32:18;;;;;;;20.58;15.50;;;11.30;99.90;;;;;;5055523;28;20036;-73
2022/05/07 01:34:44;;;;;;;20.83;15.57;;;11.30;99.90;;;;;;5056630;28;20152;-73
2022/05/07 01:37:09;;;;;;;20.85;14.93;;;11.40;99.90;;;;;;5079838;28;20035;-74
2022/05/07 01:39:35;;;;;;;23.77;16.45;;;11.30;99.90;;;;;;5069875;28;20042;-74
2022/05/07 01:42:01;;;;;;;20.27;15.95;;;11.40;99.90;;;;;;5054781;28;21480;-73
2022/05/07 01:44:27;;;;;;;23.98;16.58;;;11.40;99.90;;;;;;5055740;28;20040;-74
2022/05/07 01:49:36;;;;;;;27.55;19.50;;;11.40;99.90;;;;;;5074490;28;20040;-73
2022/05/07 01:52:02;;;;;;;24.00;17.80;;;11.40;99.90;;;;;;5055659;28;20070;-73
2022/05/07 01:54:28;;;;;;;23.92;18.77;;;11.50;99.90;;;;;;5072859;28;20484;-73
2022/05/07 01:56:54;;;;;;;28.77;18.02;;;11.50;99.90;;;;;;5062339;28;20032;-73
2022/05/07 01:59:23;;;;;;;28.98;18.40;;;11.50;99.90;;;;;;5056202;28;20047;-73
2022/05/07 02:01:49;;;;;;;25.50;17.77;;;11.50;99.90;;;;;;5067165;28;20058;-73
2022/05/07 02:04:18;;;;;;;26.90;19.02;;;11.50;99.90;;;;;;5085993;28;20052;-74
2022/05/07 02:06:44;;;;;;;24.65;19.13;;;11.50;99.90;;;;;;5072240;28;20028;-73
2022/05/07 02:09:10;;;;;;;24.38;18.77;;;11.50;99.90;;;;;;5088726;28;20039;-73
2022/05/07 02:11:36;;;;;;;23.95;18.23;;;11.50;99.90;;;;;;5071819;28;20581;-74
2022/05/07 02:14:01;;;;;;;24.70;18.42;;;11.50;99.90;;;;;;5088627;28;20059;-73
2022/05/07 02:16:31;;;;;;;27.77;20.48;;;11.50;99.90;;;;;;5088664;28;20084;-73
2022/05/07 02:18:57;;;;;;;29.33;20.15;;;11.50;99.90;;;;;;5071869;28;20027;-73
2022/05/07 02:21:25;;;;;;;24.77;18.48;;;11.50;99.90;;;;;;5057151;28;20032;-73
2022/05/07 02:23:51;;;;;;;26.95;19.35;;;11.50;99.90;;;;;;5088118;28;20042;-73
2022/05/07 02:26:17;;;;;;;24.08;18.83;;;11.60;99.90;;;;;;5067749;28;20680;-73
2022/05/07 02:28:44;;;;;;;27.02;19.42;;;11.60;99.90;;;;;;5087430;28;20113;-73
2022/05/07 02:31:11;;;;;;;27.90;19.13;;;11.60;99.90;;;;;;5056073;28;20503;-73
2022/05/07 02:33:37;;;;;;;29.40;20.35;;;11.70;99.90;;;;;;5071194;28;20493;-73
2022/05/07 02:36:03;;;;;;;24.92;19.67;;;11.70;99.90;;;;;;5088260;28;20047;-73
2022/05/07 02:38:29;;;;;;;29.60;19.98;;;11.70;99.90;;;;;;5068047;28;20492;-73
2022/05/07 02:43:38;;;;;;;27.33;19.42;;;11.70;99.90;;;;;;5059295;28;20036;-74
2022/05/07 02:46:06;;;;;;;24.15;17.77;;;11.80;99.90;;;;;;5071143;28;20050;-73
2022/05/07 02:48:36;;;;;;;24.10;19.05;;;11.80;99.90;;;;;;5068324;28;20099;-73
2022/05/07 02:51:05;;;;;;;25.10;18.25;;;11.80;99.90;;;;;;5069464;28;20035;-74
2022/05/07 02:53:30;;;;;;;25.13;18.63;;;11.80;99.90;;;;;;5086888;28;20081;-73
2022/05/07 02:55:56;;;;;;;21.70;18.15;;;11.80;99.90;;;;;;5088033;28;20181;-73
2022/05/07 02:58:22;;;;;;;24.52;17.98;;;11.80;99.90;;;;;;5071243;28;20131;-73
2022/05/07 03:00:49;;;;;;;22.42;17.48;;;11.70;99.90;;;;;;5088001;28;20724;-74
2022/05/07 03:03:15;;;;;;;25.98;17.33;;;11.70;99.90;;;;;;5038492;28;20044;-73
2022/05/07 03:05:41;;;;;;;26.73;18.13;;;11.60;99.90;;;;;;5054494;28;20031;-74
2022/05/07 03:08:07;;;;;;;26.25;18.27;;;11.70;99.90;;;;;;5070443;28;20545;-73
2022/05/07 03:10:33;;;;;;;25.88;19.17;;;11.70;99.90;;;;;;5087365;28;20035;-73
2022/05/07 03:12:59;;;;;;;31.83;20.65;;;11.70;99.90;;;;;;5071093;28;20459;-74
2022/05/07 03:15:24;;;;;;;25.98;19.33;;;11.70;99.90;;;;;;5037244;28;20505;-73
2022/05/07 03:17:50;;;;;;;28.63;19.38;;;11.70;99.90;;;;;;5053810;28;20040;-74
2022/05/07 03:20:17;;;;;;;26.70;19.00;;;11.80;99.90;;;;;;5080680;28;20036;-73
2022/05/07 03:22:44;;;;;;;26.83;17.73;;;11.80;99.90;;;;;;5068128;28;20040;-73
2022/05/07 03:25:10;;;;;;;25.17;19.17;;;11.80;99.90;;;;;;5068259;28;20408;-73
2022/05/07 03:27:36;;;;;;;25.35;18.92;;;11.80;99.90;;;;;;5070367;28;20044;-73
2022/05/07 03:30:02;;;;;;;24.88;17.52;;;11.70;99.90;;;;;;5070482;28;20078;-73
2022/05/07 03:32:28;;;;;;;23.05;17.02;;;11.70;99.90;;;;;;5068311;28;20507;-73
2022/05/07 03:34:53;;;;;;;23.13;18.55;;;11.70;99.90;;;;;;5068325;28;20063;-73
2022/05/07 03:37:19;;;;;;;23.90;18.15;;;11.70;99.90;;;;;;5053354;28;20115;-73
2022/05/07 03:39:48;;;;;;;24.45;19.85;;;11.70;99.90;;;;;;5070259;28;20133;-73
2022/05/07 03:42:13;;;;;;;30.83;20.52;;;11.70;99.90;;;;;;5071409;28;20092;-73
2022/05/07 03:44:39;;;;;;;32.85;21.77;;;11.70;99.90;;;;;;5063770;28;20043;-73
2022/05/07 03:47:06;;;;;;;27.50;21.33;;;11.70;99.90;;;;;;5068842;28;20042;-73
2022/05/07 03:49:31;;;;;;;26.17;19.83;;;11.70;99.90;;;;;;5070317;28;20083;-73
2022/05/07 03:54:43;;;;;;;31.02;20.60;;;11.70;99.90;;;;;;5059103;28;20043;-73
2022/05/07 03:57:11;;;;;;;26.35;20.98;;;11.70;99.90;;;;;;5058515;28;20031;-73
2022/05/07 03:59:36;;;;;;;28.48;21.35;;;11.70;99.90;;;;;;5074512;28;20634;-73
2022/05/07 04:02:02;;;;;;;35.10;24.92;;;11.60;99.90;;;;;;5071040;28;20121;-73
2022/05/07 04:04:28;;;;;;;34.83;24.48;;;11.60;99.90;;;;;;5068898;28;20073;-73
2022/05/07 04:06:54;;;;;;;31.92;23.83;;;12.10;99.90;;;;;;5065333;28;20093;-73
2022/05/07 04:09:20;;;;;;;39.83;25.67;;;11.60;99.90;;;;;;5086342;28;20035;-74
2022/05/07 04:11:46;;;;;;;34.30;23.60;;;11.60;99.90;;;;;;5067161;28;20063;-73
2022/05/07 04:14:11;;;;;;;35.05;24.48;;;11.60;99.90;;;;;;5051185;28;20062;-74
2022/05/07 04:16:37;;;;;;;34.78;23.83;;;11.70;99.90;;;;;;5062744;28;20036;-73
2022/05/07 04:19:03;;;;;;;31.83;24.38;;;11.60;99.90;;;;;;5070812;28;20040;-74
2022/05/07 04:21:29;;;;;;;35.20;24.67;;;11.70;99.90;;;;;;5052686;28;20047;-74
2022/05/07 04:23:54;;;;;;;29.38;23.60;;;11.60;99.90;;;;;;5051469;28;20497;-74
2022/05/07 04:26:22;;;;;;;32.90;24.10;;;11.70;99.90;;;;;;5070548;28;20549;-74
2022/05/07 04:28:48;;;;;;;34.45;24.58;;;11.60;99.90;;;;;;5069546;28;20032;-73
2022/05/07 04:31:16;;;;;;;34.72;25.52;;;11.70;99.90;;;;;;5050612;28;20036;-74
2022/05/07 04:33:41;;;;;;;83.30;30.95;;;11.70;99.90;;;;;;5053031;28;20065;-73
2022/05/07 04:36:07;;;;;;;34.03;24.65;;;11.70;99.90;;;;;;5046863;28;20044;-74
2022/05/07 04:38:36;;;;;;;34.15;24.60;;;11.80;99.90;;;;;;5053538;28;20511;-74
2022/05/07 04:41:02;;;;;;;32.08;24.10;;;11.80;99.90;;;;;;5062937;28;20032;-74
2022/05/07 04:43:28;;;;;;;33.25;23.38;;;11.80;99.90;;;;;;5082502;28;20516;-73
2022/05/07 04:45:55;;;;;;;30.25;23.48;;;11.80;99.90;;;;;;5050757;28;20059;-74
2022/05/07 04:48:21;;;;;;;31.05;22.65;;;11.90;99.90;;;;;;5071151;28;20031;-74
2022/05/07 04:50:47;;;;;;;30.25;23.25;;;11.90;99.90;;;;;;5050784;28;20032;-74
2022/05/07 04:53:13;;;;;;;33.33;24.95;;;12.00;99.90;;;;;;5059766;28;20047;-74
2022/05/07 04:55:38;;;;;;;33.08;23.30;;;12.00;99.90;;;;;;5065963;28;20042;-74
2022/05/07 04:58:04;;;;;;;36.90;24.75;;;12.10;99.90;;;;;;5068247;28;20127;-74
2022/05/07 05:00:30;;;;;;;33.33;23.83;;;12.20;99.90;;;;;;5069002;28;20058;-74
2022/05/07 05:02:56;;;;;;;32.08;22.70;;;12.20;99.90;;;;;;5069283;28;20600;-73
2022/05/07 05:05:21;;;;;;;34.03;23.52;;;12.30;99.90;;;;;;5040279;28;20066;-74
2022/05/07 05:07:47;;;;;;;31.40;23.42;;;12.30;99.90;;;;;;5056883;28;20031;-74
2022/05/07 05:10:13;;;;;;;34.30;23.75;;;12.40;99.90;;;;;;5056664;28;20063;-74
2022/05/07 05:12:38;;;;;;;31.92;23.75;;;12.50;99.90;;;;;;5065515;28;20055;-74
2022/05/07 05:15:06;;;;;;;29.55;22.00;;;12.60;99.90;;;;;;5056181;28;20172;-74
2022/05/07 05:17:33;;;;;;;33.78;23.15;;;12.60;99.90;;;;;;5070874;28;20050;-74
2022/05/07 05:20:00;;;;;;;32.67;24.50;;;12.70;99.90;;;;;;5072577;28;20047;-73
2022/05/07 05:22:28;;;;;;;32.65;23.00;;;12.70;99.90;;;;;;5073320;28;20035;-74
2022/05/07 05:24:54;;;;;;;27.50;21.23;;;12.80;99.90;;;;;;5053863;28;20088;-74
2022/05/07 05:27:21;;;;;;;32.42;21.92;;;12.80;99.90;;;;;;5073660;28;20032;-74
2022/05/07 05:29:49;;;;;;;29.75;22.42;;;12.90;99.90;;;;;;5073729;28;20031;-74
2022/05/07 05:32:18;;;;;;;32.75;22.63;;;13.00;99.90;;;;;;5072786;28;20058;-74
2022/05/07 05:34:49;;;;;;;28.63;21.63;;;13.00;99.90;;;;;;5089269;28;20032;-74
2022/05/07 05:37:18;;;;;;;28.83;22.27;;;13.10;99.90;;;;;;5056328;28;20541;-74
2022/05/07 05:39:44;;;;;;;29.58;22.35;;;13.10;99.90;;;;;;5064709;28;20122;-74
2022/05/07 05:42:13;;;;;;;28.08;21.52;;;13.20;99.90;;;;;;5088137;28;20039;-74
2022/05/07 05:44:40;;;;;;;28.65;22.13;;;13.20;99.90;;;;;;5054314;28;20036;-74
2022/05/07 05:47:09;;;;;;;30.80;21.23;;;13.20;99.90;;;;;;5088668;28;20481;-74
2022/05/07 05:49:35;;;;;;;27.38;21.40;;;13.30;99.90;;;;;;5089351;28;20039;-74
2022/05/07 05:52:02;;;;;;;27.98;22.50;;;13.30;99.90;;;;;;5086598;28;20036;-74
2022/05/07 05:54:29;;;;;;;28.92;22.15;;;13.30;99.90;;;;;;5053785;28;20839;-75
2022/05/07 05:56:58;;;;;;;30.35;21.45;;;13.40;99.90;;;;;;5084502;28;20045;-75
2022/05/07 05:59:25;;;;;;;27.90;20.80;;;13.40;99.90;;;;;;5057383;28;20488;-74
2022/05/07 06:01:53;;;;;;;31.25;22.27;;;13.40;99.90;;;;;;5088138;28;20051;-74
2022/05/07 06:04:19;;;;;;;23.40;20.30;;;13.40;99.90;;;;;;5097081;28;20114;-74
2022/05/07 06:06:44;;;;;;;29.95;22.73;;;13.40;99.90;;;;;;5072413;28;20114;-74
2022/05/07 06:09:10;;;;;;;26.58;19.85;;;13.40;99.90;;;;;;5056150;28;20039;-74
2022/05/07 06:11:36;;;;;;;29.08;21.40;;;13.40;99.90;;;;;;5071526;28;20047;-75
2022/05/07 06:14:02;;;;;;;29.95;21.58;;;13.40;99.90;;;;;;5052702;28;20045;-75
2022/05/07 06:16:27;;;;;;;26.30;20.92;;;13.50;99.90;;;;;;5084946;28;20082;-74
2022/05/07 06:18:53;;;;;;;24.50;20.33;;;13.50;99.90;;;;;;5039525;28;20035;-74
2022/05/07 06:21:22;;;;;;;29.00;20.90;;;13.50;99.90;;;;;;5088656;28;20043;-74
2022/05/07 06:23:48;;;;;;;53.65;24.63;;;13.60;99.90;;;;;;5055105;28;20084;-74
2022/05/07 06:29:01;;;;;;;28.50;20.88;;;13.70;99.90;;;;;;5059618;28;20055;-75
2022/05/07 06:31:26;;;;;;;27.85;21.45;;;13.80;99.90;;;;;;5087324;28;20114;-74
2022/05/07 06:33:52;;;;;;;33.53;21.75;;;13.90;99.90;;;;;;5071261;28;20788;-74
2022/05/07 06:36:18;;;;;;;25.52;19.52;;;14.00;99.90;;;;;;5070055;28;20042;-74
2022/05/07 06:38:44;;;;;;;28.48;20.23;;;14.10;99.90;;;;;;5069954;28;20035;-74
2022/05/07 06:41:12;;;;;;;26.38;19.23;;;14.20;99.90;;;;;;5055308;28;20035;-74
2022/05/07 06:43:38;;;;;;;26.80;19.52;;;14.30;99.90;;;;;;5087781;28;20660;-74
2022/05/07 06:46:04;;;;;;;21.80;19.45;;;14.40;99.90;;;;;;5085061;28;20110;-74
2022/05/07 06:48:30;;;;;;;24.25;18.92;;;14.50;99.90;;;;;;5050770;28;20486;-74
2022/05/07 06:50:56;;;;;;;23.85;18.63;;;14.60;99.90;;;;;;5071100;28;20039;-75
2022/05/07 06:53:22;;;;;;;23.00;18.35;;;14.80;99.90;;;;;;5053401;28;20043;-75
2022/05/07 06:56:03;;;;;;;22.08;17.65;;;15.00;99.90;;;;;;5066056;28;20039;-74
2022/05/07 06:58:33;;;;;;;23.73;17.85;;;15.10;99.90;;;;;;5087035;28;20067;-74
2022/05/07 07:01:02;;;;;;;;;;;15.30;99.90;;;;;;5088709;28;20047;-75
2022/05/07 07:03:28;;;;;;;24.60;16.98;;;15.40;99.90;;;;;;5087274;28;19924;-74
2022/05/07 07:05:58;;;;;;;21.17;16.42;;;15.50;99.90;;;;;;5065801;28;20132;-75
2022/05/07 07:08:24;;;;;;;21.48;16.80;;;15.60;99.90;;;;;;5087144;28;20043;-75
2022/05/07 07:10:50;;;;;;;20.63;17.02;;;15.70;99.90;;;;;;5072020;28;20127;-75
2022/05/07 07:13:16;;;;;;;32.55;17.27;;;15.90;99.90;;;;;;5068643;28;20036;-74
2022/05/07 07:15:45;;;;;;;25.55;16.70;;;16.00;99.90;;;;;;5070153;28;20067;-75
2022/05/07 07:18:11;;;;;;;19.08;16.25;;;16.00;99.90;;;;;;5069052;28;20583;-75
2022/05/07 07:20:41;;;;;;;22.13;16.20;;;16.10;99.90;;;;;;5086972;28;20035;-75
2022/05/07 07:23:13;;;;;;;21.30;16.13;;;16.10;99.90;;;;;;5086833;28;20035;-74
2022/05/07 07:25:40;;;;;;;23.35;16.17;;;16.10;99.90;;;;;;5071148;28;20508;-75
2022/05/07 07:28:10;;;;;;;18.85;15.88;;;16.20;99.90;;;;;;5092081;28;20039;-73
2022/05/07 07:30:41;;;;;;;21.23;15.90;;;16.30;99.90;;;;;;5077048;28;20377;-74
2022/05/07 07:33:07;;;;;;;23.48;15.52;;;16.40;99.90;;;;;;5074829;28;20047;-74
2022/05/07 07:35:33;;;;;;;33.28;17.20;;;16.60;99.90;;;;;;5097396;28;20562;-74
2022/05/07 07:38:02;;;;;;;22.25;15.15;;;16.90;99.90;;;;;;5096296;28;20048;-74
2022/05/07 07:40:29;;;;;;;22.92;15.23;;;16.90;99.90;;;;;;5078631;28;20726;-74
2022/05/07 07:42:57;;;;;;;20.33;15.35;;;17.00;99.90;;;;;;5063294;28;20082;-74
2022/05/07 07:48:08;;;;;;;22.77;15.35;;;17.20;99.90;;;;;;5067917;28;20246;-74
2022/05/07 07:50:38;;;;;;;29.25;18.23;;;17.10;99.90;;;;;;5058514;28;20032;-74
2022/05/07 07:53:07;;;;;;;31.48;17.10;;;16.80;99.90;;;;;;5073914;28;20403;-74
2022/05/07 07:55:34;;;;;;;20.23;16.20;;;16.90;99.90;;;;;;5089521;28;20044;-74
2022/05/07 07:58:02;;;;;;;27.23;18.45;;;16.80;99.90;;;;;;5074204;28;20140;-75
2022/05/07 08:00:31;;;;;;;23.92;16.92;;;16.80;99.90;;;;;;5072365;28;20104;-74
2022/05/07 08:03:05;;;;;;;23.55;17.75;;;16.80;99.90;;;;;;5051329;28;20141;-75
2022/05/07 08:05:33;;;;;;;28.77;18.88;;;16.80;99.90;;;;;;5072153;28;20079;-75
2022/05/07 08:13:35;;;;;;;25.88;16.38;;;17.20;99.90;;;;;;5074255;28;20126;-74
2022/05/07 08:16:02;;;;;;;25.10;17.67;;;17.30;99.90;;;;;;5062274;28;20127;-75
2022/05/07 08:18:28;;;;;;;21.08;17.52;;;17.40;99.90;;;;;;5073639;28;20052;-74
2022/05/07 08:20:56;;;;;;;24.85;18.75;;;17.40;99.90;;;;;;5050823;28;20490;-75
2022/05/07 08:23:26;;;;;;;24.98;18.13;;;17.30;99.90;;;;;;5054935;28;20079;-74
2022/05/07 08:25:53;;;;;;;21.95;18.25;;;17.40;99.90;;;;;;5039828;28;20055;-74
2022/05/07 08:28:24;;;;;;;24.58;17.70;;;17.30;99.90;;;;;;5055209;28;20035;-74
2022/05/07 08:30:56;;;;;;;22.45;17.88;;;17.40;99.90;;;;;;5088567;28;20055;-73
2022/05/07 08:33:23;;;;;;;20.60;16.35;;;17.50;99.90;;;;;;5088047;28;20078;-74
2022/05/07 08:35:49;;;;;;;23.45;17.05;;;17.50;99.90;;;;;;5068499;28;20051;-74
2022/05/07 08:38:16;;;;;;;24.55;17.25;;;17.70;99.90;;;;;;5047549;28;20110;-74
2022/05/07 08:40:42;;;;;;;23.75;17.02;;;17.70;99.90;;;;;;5035565;28;20067;-74
2022/05/07 08:43:11;;;;;;;23.58;16.50;;;17.70;99.90;;;;;;5062897;28;20074;-74
2022/05/07 08:45:39;;;;;;;19.35;16.00;;;17.70;99.90;;;;;;5064283;28;20132;-75
2022/05/07 08:48:06;;;;;;;22.35;16.25;;;17.60;99.90;;;;;;5047401;28;20040;-74
2022/05/07 08:50:32;;;;;;;20.50;16.10;;;17.80;99.90;;;;;;5063144;28;20040;-75
2022/05/07 08:52:59;;;;;;;20.85;15.43;;;18.10;99.90;;;;;;5036710;28;20048;-75
2022/05/07 08:55:25;;;;;;;20.00;15.27;;;18.20;99.90;;;;;;5035931;28;20044;-75
2022/05/07 08:58:10;;;;;;;;;;;;;;;;;;;;;
2022/05/07 09:00:39;;;;;;;19.25;14.27;;;18.30;99.90;;;;;;5061482;28;20524;-75
2022/05/07 09:03:05;;;;;;;21.65;13.90;;;18.50;99.90;;;;;;5059079;28;20048;-74
2022/05/07 09:05:37;;;;;;;21.88;13.43;;;18.60;99.90;;;;;;5039328;28;20033;-74
2022/05/07 09:08:04;;;;;;;21.48;16.02;;;18.60;99.50;;;;;;5033990;28;20044;-74
2022/05/07 09:10:34;;;;;;;19.05;13.18;;;18.60;99.30;;;;;;5044315;28;20036;-74
2022/05/07 09:13:14;;;;;;;18.95;12.18;;;18.50;99.20;;;;;;5033376;28;20075;-74
2022/05/07 09:15:54;;;;;;;18.02;12.27;;;18.60;99.00;;;;;;5051179;28;20054;-74
2022/05/07 09:18:21;;;;;;;18.15;12.68;;;18.60;98.80;;;;;;5051316;28;20035;-74
2022/05/07 09:21:19;;;;;;;16.00;12.45;;;18.60;99.00;;;;;;5031115;28;20040;-75
2022/05/07 09:24:05;;;;;;;19.15;13.00;;;18.60;98.60;;;;;;5050952;28;20397;-74
2022/05/07 09:26:52;;;;;;;28.20;14.10;;;18.70;98.70;;;;;;5051163;28;20050;-75
2022/05/07 09:29:18;;;;;;;21.50;14.10;;;18.70;98.70;;;;;;5050991;28;21171;-74
2022/05/07 09:31:46;;;;;;;20.40;12.35;;;18.60;98.70;;;;;;5033876;28;20111;-74
2022/05/07 09:37:20;;;;;;;17.83;12.60;;;18.60;98.90;;;;;;5049533;28;20500;-74
2022/05/07 09:39:49;;;;;;;18.65;13.32;;;18.60;98.60;;;;;;5053211;28;20048;-75
2022/05/07 09:42:20;;;;;;;22.80;13.80;;;18.50;99.10;;;;;;5054538;28;20128;-78
2022/05/07 09:44:47;;;;;;;15.57;11.82;;;18.60;99.10;;;;;;5050760;28;20165;-75
2022/05/07 09:47:13;;;;;;;14.82;11.15;;;18.50;98.90;;;;;;5025103;28;20032;-75
2022/05/07 09:52:33;;;;;;;18.40;11.07;;;18.50;99.10;;;;;;5053013;28;20036;-75
2022/05/07 09:57:44;;;;;;;20.15;13.35;;;18.50;99.00;;;;;;5066639;28;20075;-75
2022/05/07 10:00:15;;;;;;;18.00;10.90;;;18.40;99.10;;;;;;5032845;28;20577;-75
2022/05/07 10:03:07;;;;;;;18.27;11.40;;;18.50;99.40;;;;;;5085728;28;20056;-76
2022/05/07 10:05:39;;;;;;;17.17;11.20;;;18.50;99.20;;;;;;5077163;28;20042;-76
2022/05/07 10:08:42;;;;;;;19.97;11.60;;;18.40;99.00;;;;;;5086375;28;20301;-76
2022/05/07 10:11:12;;;;;;;17.40;11.13;;;18.40;98.70;;;;;;5077827;28;20612;-75
2022/05/07 10:13:38;;;;;;;20.42;12.23;;;18.40;98.90;;;;;;5093791;28;20054;-76
2022/05/07 10:16:05;;;;;;;17.20;10.75;;;18.50;98.80;;;;;;5063549;28;20086;-76
2022/05/07 10:18:40;;;;;;;23.15;11.77;;;18.50;98.70;;;;;;5057378;28;20088;-75
2022/05/07 10:21:32;;;;;;;18.23;11.27;;;18.60;98.90;;;;;;5093431;28;20040;-76
2022/05/07 10:24:01;;;;;;;16.15;11.40;;;18.80;98.50;;;;;;5049666;28;20055;-75
2022/05/07 10:26:43;;;;;;;18.37;12.33;;;18.70;98.40;;;;;;5093542;28;20062;-75
2022/05/07 10:29:26;;;;;;;18.75;10.93;;;18.70;97.70;;;;;;5084598;28;20092;-77
2022/05/07 10:32:00;;;;;;;;;;;18.70;98.00;;;;;;5092627;28;20122;-76
2022/05/07 10:34:32;;;;;;;18.33;11.15;;;18.70;97.80;;;;;;5085245;28;19916;-76
2022/05/07 10:37:06;;;;;;;15.95;10.95;;;18.90;98.20;;;;;;5091223;28;20043;-76
2022/05/07 10:39:36;;;;;;;17.77;10.73;;;18.80;97.70;;;;;;5093882;28;20078;-75
2022/05/07 10:42:19;;;;;;;14.18;10.32;;;18.80;97.60;;;;;;5074567;28;20039;-75
2022/05/07 10:44:49;;;;;;;15.93;10.68;;;18.80;97.40;;;;;;5092805;28;20112;-75
2022/05/07 10:47:21;;;;;;;16.08;10.23;;;18.80;97.80;;;;;;5092110;28;20081;-76
2022/05/07 10:49:54;;;;;;;18.23;10.20;;;18.90;97.90;;;;;;5056611;28;20065;-76
2022/05/07 10:52:53;;;;;;;20.77;11.02;;;19.00;97.90;;;;;;5075086;28;20040;-75
2022/05/07 10:55:25;;;;;;;17.65;10.82;;;19.20;96.70;;;;;;5081669;28;20039;-75
2022/05/07 10:57:57;;;;;;;18.05;10.73;;;19.20;97.60;;;;;;5071487;28;20539;-75
2022/05/07 11:00:52;;;;;;;16.58;9.93;;;19.30;97.30;;;;;;5081820;28;20126;-76
2022/05/07 11:03:25;;;;;;;20.77;10.90;;;19.30;97.30;;;;;;5077569;28;20052;-76
2022/05/07 11:06:06;;;;;;;15.65;9.82;;;19.50;96.80;;;;;;5088370;28;20408;-73
2022/05/07 11:08:50;;;;;;;16.23;10.48;;;19.50;96.70;;;;;;5084715;28;20079;-73
2022/05/07 11:11:19;;;;;;;18.75;10.82;;;19.50;96.70;;;;;;5085915;28;20500;-73
2022/05/07 11:13:46;;;;;;;19.85;11.95;;;19.50;96.80;;;;;;5086721;28;20048;-74
2022/05/07 11:16:22;;;;;;;15.77;10.60;;;19.50;96.70;;;;;;5089446;28;20035;-73
2022/05/07 11:18:52;;;;;;;19.92;11.85;;;19.50;96.70;;;;;;5085200;28;20504;-73
2022/05/07 11:21:22;;;;;;;17.30;11.98;;;19.50;96.50;;;;;;5052431;28;20656;-74
2022/05/07 11:24:01;;;;;;;18.02;12.25;;;19.60;96.70;;;;;;5099966;28;20044;-73
2022/05/07 11:26:27;;;;;;;19.13;11.35;;;19.60;96.50;;;;;;5068996;28;20083;-73
2022/05/07 11:28:54;;;;;;;16.45;11.93;;;19.50;96.30;;;;;;5073163;28;20119;-74
2022/05/07 11:31:32;;;;;;;15.45;11.07;;;19.60;96.50;;;;;;5073785;28;20036;-74
2022/05/07 11:34:11;;;;;;;16.83;11.80;;;19.60;96.20;;;;;;5084962;28;20085;-73
2022/05/07 11:36:38;;;;;;;14.63;10.80;;;19.60;95.90;;;;;;5069970;28;20441;-73
2022/05/07 11:39:08;;;;;;;16.00;10.32;;;19.60;96.10;;;;;;5071052;28;20130;-73
2022/05/07 11:41:37;;;;;;;16.95;10.55;;;19.70;95.90;;;;;;5088425;28;20055;-73
2022/05/07 11:46:58;;;;;;;15.35;10.55;;;19.80;96.10;;;;;;5094338;28;20043;-73
2022/05/07 11:49:34;;;;;;;15.13;11.57;;;19.80;96.20;;;;;;5086856;28;20084;-73
2022/05/07 11:52:27;;;;;;;20.98;11.85;;;19.90;96.40;;;;;;5086568;28;20400;-73
2022/05/07 11:54:55;;;;;;;22.42;13.00;;;20.00;96.00;;;;;;5067512;28;20040;-73
2022/05/07 11:57:32;;;;;;;15.57;12.15;;;20.10;96.10;;;;;;5050233;28;20035;-73
2022/05/07 12:00:21;;;;;;;17.35;12.65;;;20.10;96.10;;;;;;5103008;28;20048;-73
2022/05/07 12:03:09;;;;;;;18.25;13.23;;;20.20;96.00;;;;;;5056766;28;20048;-73
2022/05/07 12:05:53;;;;;;;15.68;11.63;;;20.30;95.70;;;;;;5071355;28;20044;-74
2022/05/07 12:08:24;;;;;;;17.83;11.95;;;20.50;95.70;;;;;;5070542;28;20039;-74
2022/05/07 12:10:53;;;;;;;15.73;12.25;;;20.60;95.30;;;;;;5071792;28;20043;-74
2022/05/07 12:13:22;;;;;;;14.25;10.77;;;20.50;95.00;;;;;;5068567;28;20111;-74
2022/05/07 12:18:39;;;;;;;20.35;13.32;;;20.60;95.00;;;;;;5068291;28;21331;-74
2022/05/07 12:21:05;;;;;;;18.70;11.83;;;20.70;95.10;;;;;;5067726;28;20047;-73
2022/05/07 12:31:57;;;;;;;14.45;12.02;;;20.60;94.80;;;;;;5055867;28;20032;-73
2022/05/07 12:34:27;;;;;;;18.25;11.98;;;20.70;94.90;;;;;;5069151;28;20044;-74
2022/05/07 12:36:53;;;;;;;17.75;12.63;;;20.80;95.00;;;;;;5054310;28;20036;-74
2022/05/07 12:39:22;;;;;;;18.13;12.68;;;20.80;94.50;;;;;;5036849;28;20085;-74
2022/05/07 12:41:48;;;;;;;19.17;14.35;;;20.80;94.40;;;;;;5070950;28;20096;-74
2022/05/07 12:44:18;;;;;;;19.83;14.35;;;20.70;94.40;;;;;;5047773;28;20040;-73
2022/05/07 12:46:45;;;;;;;19.08;12.90;;;20.70;94.30;;;;;;5065057;28;20432;-74
2022/05/07 12:49:10;;;;;;;20.80;15.45;;;20.80;94.40;;;;;;5057298;28;20492;-75
2022/05/07 12:51:36;;;;;;;24.50;18.73;;;20.90;94.70;;;;;;5064845;28;20101;-73
2022/05/07 12:54:06;;;;;;;25.90;19.63;;;20.80;95.00;;;;;;5067257;28;20448;-74
2022/05/07 12:56:32;;;;;;;26.00;20.05;;;20.70;95.00;;;;;;5053152;28;20055;-74
2022/05/07 12:58:58;;;;;;;24.38;20.15;;;20.50;95.20;;;;;;5034690;28;20059;-74
2022/05/07 13:01:24;;;;;;;28.30;20.48;;;20.30;95.50;;;;;;5053600;28;20193;-74
2022/05/07 13:03:50;;;;;;;26.27;20.75;;;20.10;95.90;;;;;;5056099;28;20480;-73
2022/05/07 13:06:15;;;;;;;27.40;19.80;;;20.00;96.30;;;;;;5049680;28;20557;-73
2022/05/07 13:08:41;;;;;;;25.52;18.67;;;20.00;96.50;;;;;;5065731;28;20418;-73
2022/05/07 13:11:10;;;;;;;25.00;18.70;;;20.00;96.40;;;;;;5068036;28;20067;-73
2022/05/07 13:13:36;;;;;;;25.50;17.70;;;20.10;96.30;;;;;;5037503;28;20048;-75
2022/05/07 13:16:03;;;;;;;23.30;17.92;;;20.20;96.60;;;;;;5051509;28;20493;-74
2022/05/07 13:18:28;;;;;;;26.25;17.88;;;20.40;96.40;;;;;;5051773;28;20049;-76
2022/05/07 13:20:55;;;;;;;23.45;17.05;;;20.60;96.20;;;;;;5065499;28;20040;-76